Time;durP1;ratioP1;P1;durP2;ratioP2;P2;SDS_P1;SDS_P2;PMS_P1;PMS_P2;Temp;Humidity;BMP_temperature;BMP_pressure;BME280_temperature;BME280_humidity;BME280_pressure;Samples;Min_cycle;Max_cycle;Signal;HPM_P1;HPM_P2
2023/08/02 00:00:37;;;;;;;3.03;1.20;;;22.20;70.50;;;;;;2591192;52;20944;-68
2023/08/02 00:03:04;;;;;;;1.90;0.93;;;22.20;70.50;;;;;;2345764;54;20925;-68
2023/08/02 00:05:33;;;;;;;2.45;1.02;;;22.20;70.50;;;;;;2591769;53;21583;-69
2023/08/02 00:08:00;;;;;;;1.98;0.80;;;22.20;70.60;;;;;;2588817;53;20953;-69
2023/08/02 00:10:27;;;;;;;4.25;1.00;;;22.20;70.70;;;;;;2345342;54;20983;-68
2023/08/02 00:12:53;;;;;;;4.15;1.10;;;22.20;70.70;;;;;;2348108;54;21044;-70
2023/08/02 00:15:23;;;;;;;2.92;1.10;;;22.10;70.50;;;;;;2591611;53;20962;-70
2023/08/02 00:17:49;;;;;;;2.78;1.10;;;22.20;70.60;;;;;;2578760;52;20981;-69
2023/08/02 00:20:23;;;;;;;3.28;1.40;;;22.10;70.50;;;;;;2331433;53;21671;-68
2023/08/02 00:22:56;;;;;;;3.17;1.20;;;22.10;70.40;;;;;;2592687;52;20960;-70
2023/08/02 00:25:23;;;;;;;2.47;1.00;;;22.10;70.60;;;;;;2590672;52;20980;-68
2023/08/02 00:27:55;;;;;;;2.62;1.23;;;22.10;70.70;;;;;;2592335;53;21042;-69
2023/08/02 00:30:31;;;;;;;2.12;1.02;;;22.10;70.70;;;;;;2592525;53;20960;-70
2023/08/02 00:32:57;;;;;;;2.05;0.93;;;22.10;70.50;;;;;;2589774;52;20933;-67
2023/08/02 00:35:27;;;;;;;2.70;0.98;;;22.10;70.70;;;;;;2592527;53;20968;-69
2023/08/02 00:38:09;;;;;;;;;;;22.00;70.40;;;;;;2356492;54;20969;-68
2023/08/02 00:40:39;;;;;;;1.95;0.80;;;22.10;69.10;;;;;;2590089;52;20693;-68
2023/08/02 00:43:05;;;;;;;2.20;0.82;;;22.00;70.90;;;;;;2592492;53;21129;-69
2023/08/02 00:45:33;;;;;;;2.05;0.80;;;22.00;70.90;;;;;;2346040;54;21019;-67
2023/08/02 00:48:00;;;;;;;2.87;1.08;;;22.00;70.90;;;;;;2591214;53;20923;-69
2023/08/02 00:50:29;;;;;;;2.53;0.90;;;22.00;70.90;;;;;;2346884;53;20972;-69
2023/08/02 00:52:56;;;;;;;2.28;0.95;;;22.00;70.90;;;;;;2348564;54;20964;-69
2023/08/02 00:55:27;;;;;;;2.17;1.00;;;21.90;70.90;;;;;;2344496;54;20932;-69
2023/08/02 00:57:56;;;;;;;2.70;1.35;;;21.90;70.60;;;;;;2589498;52;20970;-70
2023/08/02 01:00:29;;;;;;;2.45;1.00;;;21.90;70.90;;;;;;2347519;53;21026;-69
2023/08/02 01:02:56;;;;;;;2.55;1.00;;;21.90;70.80;;;;;;2588765;52;21826;-69
2023/08/02 01:05:29;;;;;;;2.30;1.00;;;21.90;71.00;;;;;;2346471;54;20912;-70
2023/08/02 01:08:00;;;;;;;2.83;1.10;;;21.90;70.90;;;;;;2346874;54;21005;-70
2023/08/02 01:10:31;;;;;;;2.78;1.40;;;21.90;70.50;;;;;;2591983;53;21014;-70
2023/08/02 01:12:59;;;;;;;;;;;21.90;70.70;;;;;;2596005;53;20925;-67
2023/08/02 01:15:26;;;;;;;2.15;1.00;;;21.90;69.30;;;;;;2346083;54;20127;-70
2023/08/02 01:17:53;;;;;;;1.80;0.70;;;21.90;71.20;;;;;;2344900;54;20959;-67
2023/08/02 01:20:20;;;;;;;2.87;1.10;;;21.90;71.20;;;;;;2592124;52;21013;-68
2023/08/02 01:22:47;;;;;;;2.10;0.90;;;21.90;71.20;;;;;;2589999;52;20960;-68
2023/08/02 01:25:14;;;;;;;2.80;1.10;;;21.90;71.20;;;;;;2565130;53;20933;-68
2023/08/02 01:28:03;;;;;;;2.78;1.17;;;21.90;71.30;;;;;;2583917;53;21090;-66
2023/08/02 01:30:33;;;;;;;2.37;1.00;;;21.90;69.70;;;;;;2338706;53;22438;-68
2023/08/02 01:33:01;;;;;;;2.45;1.00;;;22.00;71.40;;;;;;2589272;52;21044;-70
2023/08/02 01:35:28;;;;;;;3.05;0.98;;;21.90;71.30;;;;;;2588608;53;20976;-70
2023/08/02 01:38:00;;;;;;;3.62;1.05;;;21.90;71.20;;;;;;2345125;54;21556;-69
2023/08/02 01:40:28;;;;;;;2.17;0.98;;;21.90;71.20;;;;;;2351279;53;21062;-71
2023/08/02 01:42:54;;;;;;;2.62;1.20;;;21.90;71.20;;;;;;2344878;53;20931;-69
2023/08/02 01:45:21;;;;;;;2.92;1.12;;;21.90;71.20;;;;;;2345937;54;20918;-68
2023/08/02 01:47:51;;;;;;;2.55;1.10;;;21.90;71.30;;;;;;2592807;53;20925;-70
2023/08/02 01:50:21;;;;;;;2.83;1.20;;;21.90;71.20;;;;;;2593390;53;20932;-70
2023/08/02 01:52:49;;;;;;;2.83;1.05;;;21.90;71.20;;;;;;2346490;54;20924;-68
2023/08/02 01:55:18;;;;;;;2.60;1.10;;;21.90;71.20;;;;;;2348487;54;21044;-68
2023/08/02 01:57:45;;;;;;;2.00;0.93;;;21.90;70.80;;;;;;2592064;52;20984;-69
2023/08/02 02:00:12;;;;;;;2.90;1.20;;;21.90;71.20;;;;;;2344481;53;21335;-68
2023/08/02 02:02:39;;;;;;;3.42;1.02;;;21.90;71.20;;;;;;2592870;53;21516;-67
2023/08/02 02:05:06;;;;;;;3.20;1.30;;;21.90;71.20;;;;;;2345080;54;20927;-67
2023/08/02 02:07:32;;;;;;;2.95;1.10;;;21.90;71.20;;;;;;2346724;53;21528;-68
2023/08/02 02:09:58;;;;;;;2.60;0.98;;;21.90;71.10;;;;;;2345756;54;21723;-69
2023/08/02 02:12:26;;;;;;;3.47;1.27;;;21.90;71.00;;;;;;2349040;54;22069;-68
2023/08/02 02:14:52;;;;;;;2.70;1.42;;;21.90;70.90;;;;;;2591796;52;20940;-68
2023/08/02 02:17:19;;;;;;;2.72;1.35;;;21.90;70.90;;;;;;2592319;52;21040;-68
2023/08/02 02:19:46;;;;;;;3.03;0.90;;;21.90;70.90;;;;;;2591881;52;20952;-70
2023/08/02 02:22:13;;;;;;;2.08;0.93;;;21.90;70.80;;;;;;2591457;52;20947;-70
2023/08/02 02:24:39;;;;;;;3.08;0.98;;;21.90;71.00;;;;;;2564198;53;20948;-68
2023/08/02 02:27:08;;;;;;;2.92;1.00;;;21.90;71.10;;;;;;2589356;52;20981;-67
2023/08/02 02:29:34;;;;;;;2.75;1.17;;;21.90;70.90;;;;;;2591987;53;20940;-68
2023/08/02 02:32:01;;;;;;;3.10;1.27;;;21.90;71.10;;;;;;2591944;53;20932;-68
2023/08/02 02:34:31;;;;;;;2.83;1.40;;;21.90;71.00;;;;;;2345530;54;20980;-69
2023/08/02 02:36:59;;;;;;;2.70;1.30;;;22.00;70.80;;;;;;2345661;54;20964;-69
2023/08/02 02:39:26;;;;;;;3.85;1.75;;;22.00;71.20;;;;;;2592657;53;21004;-68
2023/08/02 02:41:52;;;;;;;2.40;1.20;;;22.00;71.20;;;;;;2345942;54;20916;-67
2023/08/02 02:44:18;;;;;;;2.80;1.10;;;22.00;71.30;;;;;;2592456;53;20920;-69
2023/08/02 02:46:45;;;;;;;4.20;1.50;;;22.00;71.40;;;;;;2346440;54;20924;-67
2023/08/02 02:49:13;;;;;;;4.90;1.70;;;22.00;71.40;;;;;;2345890;54;20995;-69
2023/08/02 02:51:39;;;;;;;3.78;1.42;;;22.00;71.40;;;;;;2346050;54;21917;-68
2023/08/02 02:54:06;;;;;;;5.55;1.40;;;22.00;71.50;;;;;;2592252;53;20932;-69
2023/08/02 02:56:36;;;;;;;3.97;1.40;;;22.10;71.70;;;;;;2346273;53;20902;-71
2023/08/02 02:59:02;;;;;;;2.85;1.30;;;22.10;71.60;;;;;;2592116;53;20953;-69
2023/08/02 03:01:31;;;;;;;2.97;1.30;;;22.00;71.60;;;;;;2591875;53;21089;-70
2023/08/02 03:03:57;;;;;;;3.12;1.40;;;22.10;71.70;;;;;;2345473;54;21657;-70
2023/08/02 03:06:24;;;;;;;3.33;1.42;;;22.00;71.60;;;;;;2592599;53;20936;-69
2023/08/02 03:08:53;;;;;;;3.60;1.60;;;22.00;71.60;;;;;;2349158;54;20916;-72
2023/08/02 03:11:20;;;;;;;2.60;1.40;;;22.00;71.60;;;;;;2591493;52;20973;-70
2023/08/02 03:13:48;;;;;;;2.47;1.23;;;22.00;71.60;;;;;;2345899;54;20928;-68
2023/08/02 03:16:15;;;;;;;2.53;1.12;;;22.00;71.60;;;;;;2346547;54;21024;-69
2023/08/02 03:18:41;;;;;;;4.45;1.30;;;22.00;71.70;;;;;;2590675;52;20909;-69
2023/08/02 03:21:09;;;;;;;3.70;1.40;;;22.00;71.60;;;;;;2348318;53;21016;-71
2023/08/02 03:23:35;;;;;;;3.72;1.48;;;22.00;71.70;;;;;;2346051;54;20979;-71
2023/08/02 03:26:01;;;;;;;3.62;1.40;;;21.90;71.50;;;;;;2592677;53;20988;-70
2023/08/02 03:28:28;;;;;;;2.60;1.30;;;22.00;71.70;;;;;;2346315;54;21401;-69
2023/08/02 03:30:54;;;;;;;3.28;1.30;;;21.90;71.70;;;;;;2346156;53;21429;-70
2023/08/02 03:33:21;;;;;;;2.50;1.00;;;21.90;71.90;;;;;;2345899;53;21016;-69
2023/08/02 03:35:49;;;;;;;3.33;1.33;;;21.90;71.90;;;;;;2345792;54;20997;-70
2023/08/02 03:38:15;;;;;;;3.05;1.25;;;21.90;71.80;;;;;;2345381;54;21686;-70
2023/08/02 03:40:49;;;;;;;2.50;1.17;;;21.90;71.90;;;;;;2345666;54;21104;-70
2023/08/02 03:43:19;;;;;;;2.62;1.30;;;21.90;71.60;;;;;;2592252;53;20932;-70
2023/08/02 03:45:48;;;;;;;3.00;1.35;;;21.80;71.80;;;;;;2345541;54;20952;-70
2023/08/02 03:48:15;;;;;;;3.03;1.40;;;21.80;71.80;;;;;;2592666;53;20940;-70
2023/08/02 03:50:42;;;;;;;2.65;1.35;;;21.80;72.00;;;;;;2592615;53;20960;-69
2023/08/02 03:53:08;;;;;;;3.50;1.17;;;21.70;71.90;;;;;;2590624;52;20988;-69
2023/08/02 03:55:35;;;;;;;3.45;1.52;;;21.70;72.00;;;;;;2345900;54;20919;-70
2023/08/02 03:58:02;;;;;;;3.30;1.52;;;21.70;72.00;;;;;;2346084;54;20996;-69
2023/08/02 04:00:28;;;;;;;3.45;1.23;;;21.60;71.90;;;;;;2593220;53;21757;-69
2023/08/02 04:04:25;;;;;;;2.40;0.93;;;21.60;72.70;;;;;;2433486;54;23483;-70
2023/08/02 04:06:54;;;;;;;2.85;1.23;;;21.60;71.90;;;;;;2472248;56;20960;-72
2023/08/02 04:09:20;;;;;;;2.65;1.37;;;21.50;72.00;;;;;;2248163;56;21031;-71
2023/08/02 04:11:46;;;;;;;2.70;1.30;;;21.50;72.10;;;;;;2472194;55;20997;-71
2023/08/02 04:14:12;;;;;;;3.40;1.48;;;21.50;72.20;;;;;;2464598;55;21758;-72
2023/08/02 04:16:40;;;;;;;2.22;1.08;;;21.40;72.10;;;;;;2222116;56;21008;-71
2023/08/02 04:19:06;;;;;;;3.35;1.60;;;21.40;72.20;;;;;;2255505;55;20978;-71
2023/08/02 04:21:33;;;;;;;3.28;1.30;;;21.40;72.30;;;;;;2476600;55;20999;-72
2023/08/02 04:24:01;;;;;;;3.15;1.48;;;21.30;72.30;;;;;;2251463;56;20982;-70
2023/08/02 04:26:27;;;;;;;3.30;1.37;;;21.30;72.30;;;;;;2251550;56;21442;-69
2023/08/02 04:28:58;;;;;;;3.45;1.60;;;21.30;72.30;;;;;;2251571;56;20941;-70
2023/08/02 04:31:24;;;;;;;3.80;1.55;;;21.30;72.20;;;;;;2256121;56;21370;-71
2023/08/02 04:33:56;;;;;;;4.78;1.70;;;21.20;72.20;;;;;;2475745;54;21854;-70
2023/08/02 04:36:25;;;;;;;2.97;1.48;;;21.20;72.30;;;;;;2487237;55;20954;-69
2023/08/02 04:38:53;;;;;;;3.15;1.58;;;21.10;72.20;;;;;;2247231;56;20965;-72
2023/08/02 04:41:19;;;;;;;2.78;1.40;;;21.10;72.30;;;;;;2248141;56;21092;-69
2023/08/02 04:43:48;;;;;;;3.92;1.85;;;21.10;72.30;;;;;;2479472;55;20983;-71
2023/08/02 04:46:14;;;;;;;2.95;1.50;;;21.10;72.40;;;;;;2277135;56;20947;-71
2023/08/02 04:48:41;;;;;;;3.45;1.40;;;21.00;72.30;;;;;;2509716;55;20928;-69
2023/08/02 04:51:07;;;;;;;4.10;1.77;;;21.00;72.40;;;;;;2508832;55;20960;-71
2023/08/02 04:53:34;;;;;;;3.03;1.35;;;21.00;72.50;;;;;;2277607;56;20955;-70
2023/08/02 04:56:08;;;;;;;3.10;1.55;;;21.00;72.60;;;;;;2277052;56;20979;-71
2023/08/02 04:58:37;;;;;;;3.45;1.23;;;21.00;72.30;;;;;;2508269;54;20971;-70
2023/08/02 05:01:08;;;;;;;2.95;1.30;;;20.90;72.50;;;;;;2500678;55;20952;-71
2023/08/02 05:03:34;;;;;;;3.00;1.60;;;20.90;72.80;;;;;;2277210;56;20929;-70
2023/08/02 05:06:01;;;;;;;3.83;1.65;;;20.90;72.90;;;;;;2505880;55;20962;-71
2023/08/02 05:08:32;;;;;;;2.85;1.40;;;20.90;73.10;;;;;;2502773;55;21107;-71
2023/08/02 05:10:59;;;;;;;3.28;1.70;;;20.90;73.20;;;;;;2509210;55;21798;-69
2023/08/02 05:13:28;;;;;;;3.05;1.42;;;20.90;73.50;;;;;;2280829;55;20980;-69
2023/08/02 05:15:56;;;;;;;3.03;1.50;;;20.90;73.60;;;;;;2271254;56;20973;-69
2023/08/02 05:18:23;;;;;;;2.60;1.27;;;20.80;73.70;;;;;;2507271;55;20952;-69
2023/08/02 05:20:52;;;;;;;3.03;1.52;;;20.90;73.90;;;;;;2276290;56;21003;-69
2023/08/02 05:23:18;;;;;;;4.07;2.10;;;20.90;74.00;;;;;;2275607;56;20987;-70
2023/08/02 05:25:45;;;;;;;2.78;1.40;;;20.90;74.00;;;;;;2507420;54;20956;-70
2023/08/02 05:28:15;;;;;;;3.10;1.60;;;20.90;74.10;;;;;;2507597;55;21498;-70
2023/08/02 05:30:44;;;;;;;3.33;1.60;;;20.90;74.20;;;;;;2277028;56;20944;-70
2023/08/02 05:33:10;;;;;;;3.30;1.60;;;20.90;74.20;;;;;;2507302;55;20952;-71
2023/08/02 05:35:39;;;;;;;3.42;1.50;;;20.90;74.40;;;;;;2276217;56;21409;-68
2023/08/02 05:38:05;;;;;;;3.08;1.52;;;20.90;74.40;;;;;;2498341;55;20950;-70
2023/08/02 05:40:33;;;;;;;4.07;1.60;;;20.90;74.50;;;;;;2508780;55;21014;-72
2023/08/02 05:43:01;;;;;;;3.20;1.60;;;20.90;74.50;;;;;;2249662;57;20988;-69
2023/08/02 05:45:36;;;;;;;3.30;1.62;;;20.90;74.50;;;;;;2276694;57;21497;-69
2023/08/02 05:48:03;;;;;;;6.15;2.00;;;20.90;74.20;;;;;;2231508;56;21083;-70
2023/08/02 05:50:32;;;;;;;4.62;1.58;;;20.90;74.60;;;;;;2439171;56;20972;-70
2023/08/02 05:53:01;;;;;;;2.83;1.55;;;20.90;74.50;;;;;;2471621;55;21027;-70
2023/08/02 05:58:55;;;;;;;3.42;1.70;;;20.90;73.90;;;;;;2499334;55;21501;-70
2023/08/02 06:01:22;;;;;;;3.30;1.77;;;20.90;74.40;;;;;;2507674;54;20948;-71
2023/08/02 06:03:48;;;;;;;4.15;1.60;;;20.90;74.50;;;;;;2508220;55;20963;-71
2023/08/02 06:06:15;;;;;;;3.08;1.67;;;20.90;74.50;;;;;;2276066;56;20944;-70
2023/08/02 06:08:43;;;;;;;2.90;1.60;;;20.90;74.50;;;;;;2276487;56;21019;-71
2023/08/02 06:11:10;;;;;;;3.22;1.58;;;20.90;74.50;;;;;;2275842;56;20983;-70
2023/08/02 06:13:37;;;;;;;3.50;1.70;;;20.90;74.50;;;;;;2508425;54;20956;-68
2023/08/02 06:16:04;;;;;;;3.67;1.90;;;20.90;74.60;;;;;;2276428;56;20992;-69
2023/08/02 06:18:30;;;;;;;3.95;2.00;;;20.90;74.60;;;;;;2508293;55;21003;-71
2023/08/02 06:20:57;;;;;;;3.20;1.80;;;20.90;74.70;;;;;;2507505;55;20991;-70
2023/08/02 06:23:23;;;;;;;4.10;2.12;;;20.90;74.70;;;;;;2275564;56;20960;-70
2023/08/02 06:25:51;;;;;;;3.35;1.73;;;20.90;74.80;;;;;;2276090;56;20989;-71
2023/08/02 06:28:19;;;;;;;4.12;2.10;;;20.90;75.50;;;;;;2506910;55;21568;-71
2023/08/02 06:30:55;;;;;;;3.92;2.12;;;20.90;74.80;;;;;;2276065;56;20967;-71
2023/08/02 06:33:21;;;;;;;4.75;2.17;;;20.90;74.80;;;;;;2507890;55;21015;-71
2023/08/02 06:35:48;;;;;;;3.92;2.20;;;20.90;74.80;;;;;;2508289;54;21269;-71
2023/08/02 06:38:17;;;;;;;4.30;2.17;;;20.90;74.90;;;;;;2507091;55;21437;-71
2023/08/02 06:40:43;;;;;;;3.58;1.80;;;20.90;74.90;;;;;;2502122;55;21368;-70
2023/08/02 06:43:09;;;;;;;3.67;1.98;;;20.90;74.90;;;;;;2272420;56;20940;-70
2023/08/02 06:45:36;;;;;;;3.50;2.00;;;20.90;75.00;;;;;;2508436;55;20932;-70
2023/08/02 06:48:05;;;;;;;4.60;2.25;;;20.90;75.00;;;;;;2508267;55;21067;-70
2023/08/02 06:50:37;;;;;;;3.42;2.00;;;20.90;75.10;;;;;;2507613;55;20991;-71
2023/08/02 06:53:05;;;;;;;3.90;2.08;;;20.90;75.00;;;;;;2276317;56;20992;-71
2023/08/02 06:55:31;;;;;;;4.00;1.87;;;21.00;75.30;;;;;;2501365;55;20950;-71
2023/08/02 06:57:58;;;;;;;3.85;1.90;;;21.00;75.50;;;;;;2504896;55;21243;-70
2023/08/02 07:00:24;;;;;;;3.97;2.00;;;21.00;75.50;;;;;;2507265;55;20976;-72
2023/08/02 07:02:51;;;;;;;3.92;1.60;;;21.00;75.50;;;;;;2508085;54;20964;-70
2023/08/02 07:05:17;;;;;;;3.95;1.77;;;21.00;75.60;;;;;;2276795;56;20979;-70
2023/08/02 07:07:44;;;;;;;3.62;2.03;;;21.00;75.70;;;;;;2508800;55;21095;-70
2023/08/02 07:10:11;;;;;;;4.15;1.98;;;21.10;75.80;;;;;;2276215;56;21016;-72
2023/08/02 07:12:37;;;;;;;3.95;2.17;;;21.10;75.80;;;;;;2274651;56;21399;-69
2023/08/02 07:15:06;;;;;;;3.40;2.08;;;21.10;75.80;;;;;;2265250;56;20999;-71
2023/08/02 07:17:35;;;;;;;4.28;2.35;;;21.10;75.70;;;;;;2270441;56;20990;-69
2023/08/02 07:20:16;;;;;;;4.93;2.20;;;21.10;75.70;;;;;;2496110;54;21498;-70
2023/08/02 07:22:43;;;;;;;3.97;2.05;;;21.10;75.30;;;;;;2496097;54;21078;-72
2023/08/02 07:25:09;;;;;;;4.62;1.80;;;21.20;76.50;;;;;;2502787;54;20907;-71
2023/08/02 07:27:39;;;;;;;3.70;2.00;;;21.20;75.80;;;;;;2503079;54;21527;-70
2023/08/02 07:30:07;;;;;;;5.45;1.77;;;21.20;75.80;;;;;;2271506;56;20995;-70
2023/08/02 07:32:34;;;;;;;3.33;1.77;;;21.20;75.90;;;;;;2502108;54;20951;-70
2023/08/02 07:35:00;;;;;;;3.28;2.00;;;21.20;75.90;;;;;;2501689;54;21063;-70
2023/08/02 07:37:27;;;;;;;3.75;1.90;;;21.20;75.90;;;;;;2502335;54;21749;-71
2023/08/02 07:39:55;;;;;;;3.25;1.73;;;21.20;75.90;;;;;;2487931;55;21523;-71
2023/08/02 07:42:25;;;;;;;2.92;1.73;;;21.30;75.90;;;;;;2271126;56;21027;-70
2023/08/02 07:45:08;;;;;;;3.85;2.17;;;21.30;75.90;;;;;;2501942;54;20990;-69
2023/08/02 07:47:34;;;;;;;4.12;2.10;;;21.30;75.20;;;;;;2271649;56;20946;-72
2023/08/02 07:50:01;;;;;;;4.20;2.22;;;21.30;75.80;;;;;;2501342;54;21003;-71
2023/08/02 07:52:27;;;;;;;3.62;2.20;;;21.30;75.90;;;;;;2501530;54;20966;-71
2023/08/02 07:54:53;;;;;;;3.53;2.12;;;21.40;76.00;;;;;;2501667;54;20960;-71
2023/08/02 07:57:25;;;;;;;4.12;2.15;;;21.40;75.90;;;;;;2502339;54;20931;-70
2023/08/02 08:00:22;;;;;;;3.72;2.17;;;21.40;75.90;;;;;;2502308;54;20975;-70
2023/08/02 08:02:48;;;;;;;3.62;1.75;;;21.50;75.30;;;;;;2501897;54;20991;-70
2023/08/02 08:05:14;;;;;;;4.15;2.30;;;21.50;75.90;;;;;;2489389;54;21889;-72
2023/08/02 08:07:44;;;;;;;3.75;2.20;;;21.50;75.90;;;;;;2259244;56;20967;-71
2023/08/02 08:10:14;;;;;;;3.50;2.17;;;21.50;75.50;;;;;;2487302;55;21108;-71
2023/08/02 08:12:40;;;;;;;3.80;1.98;;;21.50;75.80;;;;;;2487172;55;20987;-68
2023/08/02 08:15:08;;;;;;;4.22;2.30;;;21.50;75.70;;;;;;2259263;56;20935;-71
2023/08/02 08:17:34;;;;;;;3.55;2.15;;;21.50;75.60;;;;;;2487103;55;21863;-71
2023/08/02 08:20:03;;;;;;;4.70;2.50;;;21.50;75.60;;;;;;2486520;55;20931;-69
2023/08/02 08:22:30;;;;;;;4.05;2.37;;;21.50;75.50;;;;;;2257972;56;21011;-69
2023/08/02 08:24:57;;;;;;;4.05;2.20;;;21.60;75.70;;;;;;2476438;55;20994;-70
2023/08/02 08:27:23;;;;;;;4.05;2.25;;;21.60;75.70;;;;;;2249736;56;20935;-70
2023/08/02 08:29:49;;;;;;;4.32;2.50;;;21.60;75.70;;;;;;2469562;55;20959;-70
2023/08/02 08:32:17;;;;;;;4.72;2.40;;;21.60;75.70;;;;;;2258670;56;21015;-69
2023/08/02 08:34:44;;;;;;;3.95;2.20;;;21.60;75.60;;;;;;2486207;55;21699;-70
2023/08/02 08:37:11;;;;;;;4.37;2.47;;;21.60;75.70;;;;;;2486743;55;21322;-71
2023/08/02 08:39:38;;;;;;;3.95;2.20;;;21.70;75.70;;;;;;2486200;55;20939;-67
2023/08/02 08:42:08;;;;;;;4.28;2.35;;;21.70;75.80;;;;;;2258718;56;21764;-69
2023/08/02 08:44:38;;;;;;;4.90;2.50;;;21.70;75.50;;;;;;2259204;56;21432;-69
2023/08/02 08:47:10;;;;;;;3.75;2.53;;;21.70;75.50;;;;;;2485920;55;20956;-71
2023/08/02 08:49:37;;;;;;;4.30;2.67;;;21.70;75.50;;;;;;2486756;55;20991;-69
2023/08/02 08:52:16;;;;;;;4.57;2.50;;;21.70;75.70;;;;;;2259279;56;20935;-67
2023/08/02 08:54:43;;;;;;;4.32;2.47;;;21.80;75.80;;;;;;2486704;55;20931;-70
2023/08/02 08:57:19;;;;;;;4.18;2.37;;;21.80;75.80;;;;;;2258863;56;20988;-69
2023/08/02 08:59:45;;;;;;;5.03;2.78;;;21.80;75.20;;;;;;2233419;57;20954;-72
2023/08/02 09:02:12;;;;;;;5.97;2.37;;;21.80;75.90;;;;;;2456794;56;20945;-71
2023/08/02 09:04:39;;;;;;;4.60;2.25;;;21.80;76.00;;;;;;2232720;57;21025;-71
2023/08/02 09:07:11;;;;;;;4.12;2.40;;;21.90;76.00;;;;;;2492998;55;20948;-70
2023/08/02 09:09:38;;;;;;;3.95;2.00;;;21.90;76.10;;;;;;2498791;55;20995;-69
2023/08/02 09:12:05;;;;;;;4.72;2.55;;;21.90;76.10;;;;;;2261814;56;21645;-72
2023/08/02 09:14:31;;;;;;;4.97;2.55;;;22.00;76.20;;;;;;2502861;55;20940;-70
2023/08/02 09:17:02;;;;;;;4.43;2.45;;;22.00;76.20;;;;;;2499406;55;21119;-72
2023/08/02 09:19:34;;;;;;;4.18;2.30;;;22.10;76.30;;;;;;2502946;55;21864;-69
2023/08/02 09:22:14;;;;;;;3.60;2.05;;;22.10;76.30;;;;;;2502840;55;21410;-72
2023/08/02 09:24:44;;;;;;;3.80;2.20;;;22.10;75.60;;;;;;2271507;56;20944;-70
2023/08/02 09:27:14;;;;;;;4.55;2.10;;;22.20;76.40;;;;;;2502731;55;20940;-69
2023/08/02 09:29:47;;;;;;;4.12;2.35;;;22.20;76.60;;;;;;2271922;56;20912;-71
2023/08/02 09:32:17;;;;;;;3.92;2.30;;;22.30;76.60;;;;;;2269621;56;21043;-69
2023/08/02 09:34:45;;;;;;;4.68;2.60;;;22.30;77.00;;;;;;2467017;55;20962;-71
2023/08/02 09:37:16;;;;;;;5.12;3.15;;;22.40;77.20;;;;;;2486627;55;20947;-71
2023/08/02 09:39:54;;;;;;;3.85;2.45;;;22.40;77.10;;;;;;2502080;55;20951;-71
2023/08/02 09:42:27;;;;;;;4.12;2.70;;;22.50;77.00;;;;;;2502595;55;20923;-72
2023/08/02 09:44:55;;;;;;;4.78;2.80;;;22.60;77.60;;;;;;2501167;55;20984;-70
2023/08/02 09:47:24;;;;;;;10.80;3.10;;;22.70;78.00;;;;;;2271743;57;20956;-71
2023/08/02 09:50:13;;;;;;;5.93;3.47;;;22.80;78.20;;;;;;2502369;55;21846;-70
2023/08/02 09:52:42;;;;;;;4.68;2.80;;;22.90;76.80;;;;;;2501872;55;20931;-70
2023/08/02 09:55:09;;;;;;;4.72;3.15;;;23.00;78.20;;;;;;2502061;55;20928;-70
2023/08/02 09:57:35;;;;;;;4.93;2.70;;;23.10;78.20;;;;;;2502663;55;20919;-70
2023/08/02 10:00:06;;;;;;;5.15;2.45;;;23.20;78.40;;;;;;2502774;55;20968;-69
2023/08/02 10:02:34;;;;;;;5.37;2.87;;;23.30;78.10;;;;;;2270994;56;21110;-71
2023/08/02 10:05:01;;;;;;;6.25;3.08;;;23.30;78.10;;;;;;2271607;56;21424;-72
2023/08/02 10:07:46;;;;;;;4.80;2.90;;;23.50;78.20;;;;;;2503199;55;20940;-71
2023/08/02 10:10:29;;;;;;;4.65;2.60;;;23.60;76.80;;;;;;2271976;56;20936;-72
2023/08/02 10:12:56;;;;;;;5.87;2.97;;;23.70;77.70;;;;;;2502611;55;20985;-71
2023/08/02 10:15:23;;;;;;;4.22;2.55;;;23.80;77.60;;;;;;2502696;55;20980;-70
2023/08/02 10:17:52;;;;;;;4.65;3.00;;;23.90;77.30;;;;;;2502248;55;20968;-70
2023/08/02 10:20:19;;;;;;;4.82;2.92;;;23.90;77.00;;;;;;2502886;55;20923;-71
2023/08/02 10:22:45;;;;;;;4.75;2.62;;;24.00;76.80;;;;;;2502837;55;21574;-71
2023/08/02 10:25:17;;;;;;;4.75;2.90;;;24.10;76.80;;;;;;2502529;55;20924;-71
2023/08/02 10:27:44;;;;;;;5.22;2.70;;;24.20;76.30;;;;;;2502287;55;20924;-72
2023/08/02 10:30:11;;;;;;;4.53;3.12;;;24.20;76.40;;;;;;2502379;55;20927;-70
2023/08/02 10:32:37;;;;;;;4.78;2.70;;;24.20;76.10;;;;;;2502919;55;20983;-70
2023/08/02 10:35:04;;;;;;;4.65;2.67;;;24.30;76.00;;;;;;2502573;55;21059;-71
2023/08/02 10:37:55;;;;;;;5.10;2.78;;;24.40;76.00;;;;;;2503276;55;21590;-71
2023/08/02 10:40:22;;;;;;;4.90;2.97;;;24.40;74.30;;;;;;2503113;55;20980;-72
2023/08/02 10:43:07;;;;;;;4.47;2.62;;;24.50;75.90;;;;;;2272179;56;21004;-70
2023/08/02 10:45:42;;;;;;;3.83;2.47;;;24.50;74.20;;;;;;2272415;57;20936;-71
2023/08/02 10:48:28;;;;;;;4.80;2.60;;;24.60;74.80;;;;;;2271523;57;22053;-71
2023/08/02 10:50:56;;;;;;;4.43;2.45;;;24.60;74.50;;;;;;2489866;54;21063;-70
2023/08/02 10:53:55;;;;;;;4.10;2.60;;;24.70;76.00;;;;;;2462790;55;20989;-70
2023/08/02 10:56:23;;;;;;;4.25;2.33;;;24.70;74.50;;;;;;2269289;56;20988;-71
2023/08/02 10:58:52;;;;;;;4.37;2.60;;;24.80;76.20;;;;;;2492142;55;20920;-69
2023/08/02 11:01:18;;;;;;;3.85;2.62;;;24.80;76.10;;;;;;2502453;55;20946;-70
2023/08/02 11:03:45;;;;;;;4.75;2.90;;;24.90;76.40;;;;;;2502841;55;20987;-72
2023/08/02 11:06:44;;;;;;;4.47;2.65;;;25.00;76.40;;;;;;2496961;55;20940;-72
2023/08/02 11:09:12;;;;;;;4.03;2.50;;;25.00;74.40;;;;;;2486293;55;21031;-71
2023/08/02 11:11:38;;;;;;;5.62;3.20;;;25.10;76.30;;;;;;2474373;55;21043;-71
2023/08/02 11:14:07;;;;;;;4.80;2.60;;;25.20;76.00;;;;;;2484797;55;20980;-71
2023/08/02 11:16:42;;;;;;;5.68;2.85;;;25.20;75.80;;;;;;2502829;55;21010;-70
2023/08/02 11:19:09;;;;;;;3.83;2.25;;;25.20;74.80;;;;;;2502546;55;22359;-71
2023/08/02 11:21:38;;;;;;;4.85;2.40;;;25.30;76.40;;;;;;2502915;55;21027;-70
2023/08/02 11:24:05;;;;;;;3.92;2.35;;;25.40;75.30;;;;;;2502081;55;20972;-70
2023/08/02 11:26:31;;;;;;;4.47;2.85;;;25.40;75.50;;;;;;2500180;55;21017;-71
2023/08/02 11:32:24;;;;;;;3.80;2.25;;;25.50;73.40;;;;;;2271552;56;20967;-72
2023/08/02 11:34:53;;;;;;;3.83;1.90;;;25.60;75.40;;;;;;2501886;54;20939;-72
2023/08/02 11:37:20;;;;;;;4.70;2.30;;;25.60;75.30;;;;;;2500128;55;21063;-70
2023/08/02 11:39:58;;;;;;;4.85;2.65;;;25.60;75.20;;;;;;2488418;55;21000;-70
2023/08/02 11:42:29;;;;;;;3.70;2.30;;;25.70;73.80;;;;;;2263352;56;20936;-71
2023/08/02 11:44:55;;;;;;;4.57;2.50;;;25.70;75.00;;;;;;2271918;56;20916;-71
2023/08/02 11:47:34;;;;;;;4.40;2.35;;;25.70;74.90;;;;;;2502532;55;21062;-70
2023/08/02 11:50:01;;;;;;;4.22;2.50;;;25.80;73.60;;;;;;2498411;55;20996;-71
2023/08/02 11:52:30;;;;;;;4.35;2.65;;;25.80;74.70;;;;;;2261099;56;21381;-71
2023/08/02 11:54:57;;;;;;;4.45;2.75;;;25.90;74.50;;;;;;2502279;55;20919;-71
2023/08/02 11:57:23;;;;;;;4.15;2.35;;;25.80;74.40;;;;;;2501869;55;21086;-71
2023/08/02 11:59:51;;;;;;;4.62;2.25;;;25.90;74.40;;;;;;2271618;57;20991;-70
2023/08/02 12:02:28;;;;;;;3.92;2.15;;;25.90;74.30;;;;;;2272024;57;20964;-70
2023/08/02 12:04:54;;;;;;;3.28;1.98;;;26.00;73.70;;;;;;2502214;55;21027;-69
2023/08/02 12:07:27;;;;;;;3.70;2.17;;;26.00;74.50;;;;;;2502131;55;20936;-70
2023/08/02 12:09:54;;;;;;;3.87;2.22;;;26.00;73.80;;;;;;2502229;55;22701;-70
2023/08/02 12:12:20;;;;;;;4.47;2.35;;;26.00;74.30;;;;;;2502922;55;21404;-71
2023/08/02 12:14:47;;;;;;;4.55;2.22;;;26.00;74.00;;;;;;2271495;57;21801;-70
2023/08/02 12:17:20;;;;;;;4.37;2.50;;;26.10;74.10;;;;;;2502392;55;20995;-71
2023/08/02 12:19:47;;;;;;;4.57;2.15;;;26.10;72.90;;;;;;2502419;55;20998;-70
2023/08/02 12:22:14;;;;;;;4.03;2.17;;;26.10;73.90;;;;;;2271299;57;21651;-71
2023/08/02 12:24:41;;;;;;;4.18;2.33;;;26.10;73.90;;;;;;2271336;56;20983;-68
2023/08/02 12:27:18;;;;;;;5.25;2.12;;;26.20;73.80;;;;;;2471893;55;20958;-72
2023/08/02 12:29:45;;;;;;;4.32;2.12;;;26.20;72.60;;;;;;2267413;56;20944;-68
2023/08/02 12:32:33;;;;;;;4.82;2.10;;;26.20;73.70;;;;;;2503201;55;20915;-70
2023/08/02 12:35:07;;;;;;;3.58;1.80;;;26.20;71.70;;;;;;2271745;57;21279;-71
2023/08/02 12:37:37;;;;;;;3.67;2.05;;;26.20;72.80;;;;;;2272789;57;20955;-68
2023/08/02 12:40:04;;;;;;;3.50;1.85;;;26.20;73.70;;;;;;2271804;57;20928;-71
2023/08/02 12:42:31;;;;;;;3.37;1.67;;;26.30;73.80;;;;;;2503470;55;20971;-69
2023/08/02 12:45:26;;;;;;;4.45;2.00;;;26.30;73.90;;;;;;2502882;54;21011;-71
2023/08/02 12:47:53;;;;;;;3.40;1.73;;;26.30;71.50;;;;;;2272026;57;20936;-71
2023/08/02 12:50:21;;;;;;;3.22;1.65;;;26.30;73.50;;;;;;2503138;55;21853;-70
2023/08/02 12:52:48;;;;;;;4.50;1.80;;;26.30;73.30;;;;;;2270830;56;20940;-71
2023/08/02 12:55:14;;;;;;;3.72;1.65;;;26.30;73.30;;;;;;2502465;55;20916;-71
2023/08/02 12:57:40;;;;;;;4.50;1.52;;;26.30;73.40;;;;;;2264470;56;21822;-71
2023/08/02 13:00:07;;;;;;;3.37;1.80;;;26.30;73.60;;;;;;2498777;55;21816;-72
2023/08/02 13:02:34;;;;;;;3.15;1.52;;;26.30;73.50;;;;;;2271690;57;20927;-71
2023/08/02 13:05:00;;;;;;;6.62;1.87;;;26.30;73.60;;;;;;2502559;55;20964;-72